createdAt,value
2019-04-06T00:00:15.758Z,33.43
2019-04-06T00:02:45.351Z,33.57
2019-04-06T00:05:26.965Z,33.10
2019-04-06T00:07:55.655Z,33.60
2019-04-06T00:10:24.196Z,31.67
2019-04-06T00:12:52.671Z,33.37
2019-04-06T00:15:21.144Z,33.07
2019-04-06T00:17:49.598Z,33.63
2019-04-06T00:20:18.009Z,32.97
2019-04-06T00:22:46.493Z,33.10
2019-04-06T00:25:15.263Z,34.40
2019-04-06T00:27:44.689Z,31.00
2019-04-06T00:30:14.863Z,32.53
2019-04-06T00:32:55.755Z,33.93
2019-04-06T00:35:24.180Z,32.77
2019-04-06T00:37:52.622Z,32.47
2019-04-06T00:40:47.251Z,33.03
2019-04-06T00:43:16.029Z,31.93
2019-04-06T00:45:44.734Z,33.27
2019-04-06T00:48:14.528Z,33.07
2019-04-06T00:50:44.407Z,32.63
2019-04-06T00:53:14.920Z,31.97
2019-04-06T00:55:55.128Z,30.40
2019-04-06T00:58:15.087Z,30.50
2019-04-06T01:00:45.592Z,30.03
2019-04-06T01:03:15.544Z,30.93
2019-04-06T01:05:44.700Z,34.40
2019-04-06T01:08:14.165Z,35.50
2019-04-06T01:10:44.778Z,35.47
2019-04-06T01:13:14.177Z,34.17
2019-04-06T01:15:43.857Z,39.03
2019-04-06T01:18:14.705Z,42.37
2019-04-06T01:20:44.416Z,42.23
2019-04-06T01:23:14.520Z,42.70
2019-04-06T01:25:43.686Z,37.83
2019-04-06T01:28:14.322Z,42.00
2019-04-06T01:30:45.431Z,49.07
2019-04-06T01:33:14.666Z,43.07
2019-04-06T01:35:44.372Z,40.63
2019-04-06T01:38:13.671Z,43.60
2019-04-06T01:40:45.031Z,41.17
2019-04-06T01:43:15.462Z,39.57
2019-04-06T01:45:44.293Z,36.37
2019-04-06T01:48:13.372Z,39.37
2019-04-06T01:50:44.312Z,41.63
2019-04-06T01:53:14.299Z,42.07
2019-04-06T01:55:43.590Z,39.60
2019-04-06T01:58:13.283Z,37.63
2019-04-06T02:00:45.762Z,40.50
2019-04-06T02:03:14.315Z,43.50
2019-04-06T02:05:44.956Z,42.97
2019-04-06T02:08:14.335Z,41.83
2019-04-06T02:10:44.369Z,44.53
2019-04-06T02:13:13.444Z,40.80
2019-04-06T02:16:48.174Z,43.40
2019-04-06T02:19:17.011Z,37.70
2019-04-06T02:21:45.416Z,35.43
2019-04-06T02:24:14.969Z,36.73
2019-04-06T02:26:44.014Z,36.10
2019-04-06T02:29:14.241Z,34.13
2019-04-06T02:32:00.394Z,35.47
2019-04-06T02:34:37.614Z,37.97
2019-04-06T02:37:39.739Z,36.90
2019-04-06T02:40:14.565Z,34.47
2019-04-06T02:42:48.401Z,33.40
2019-04-06T02:45:17.005Z,36.27
2019-04-06T02:47:46.521Z,34.17
2019-04-06T02:50:15.726Z,34.33
2019-04-06T02:52:45.371Z,34.70
2019-04-06T02:55:34.685Z,33.20
2019-04-06T02:58:03.128Z,35.03
2019-04-06T03:00:32.035Z,36.00
2019-04-06T03:03:00.507Z,31.33
2019-04-06T03:05:28.957Z,28.20
2019-04-06T03:07:57.383Z,27.27
2019-04-06T03:10:25.859Z,27.23
2019-04-06T03:12:54.346Z,28.90
2019-04-06T03:15:22.821Z,26.57
2019-04-06T03:17:51.292Z,30.00
2019-04-06T03:20:19.784Z,28.10
2019-04-06T03:22:48.262Z,28.30
2019-04-06T03:25:16.732Z,29.37
2019-04-06T03:27:45.222Z,28.10
2019-04-06T03:30:13.763Z,29.10
2019-04-06T03:32:42.462Z,29.47
2019-04-06T03:35:11.238Z,28.00
2019-04-06T03:37:39.742Z,30.03
2019-04-06T03:40:08.906Z,31.40
2019-04-06T03:42:37.471Z,31.10
2019-04-06T03:45:07.806Z,35.77
2019-04-06T03:47:36.263Z,36.17
2019-04-06T03:50:06.750Z,32.30
2019-04-06T03:52:35.210Z,31.97
2019-04-06T03:55:04.236Z,33.17
2019-04-06T03:57:32.670Z,31.20
2019-04-06T04:00:01.102Z,35.30
2019-04-06T04:02:29.561Z,39.60
2019-04-06T04:04:58.032Z,37.03
2019-04-06T04:07:26.486Z,42.27
2019-04-06T04:09:54.998Z,36.03
2019-04-06T04:12:23.689Z,39.47
2019-04-06T04:14:52.167Z,44.77
2019-04-06T04:17:20.711Z,43.90
2019-04-06T04:19:49.198Z,41.33
2019-04-06T04:22:17.659Z,42.53
2019-04-06T04:24:46.141Z,43.30
2019-04-06T04:27:27.744Z,40.87
2019-04-06T04:29:44.874Z,42.43
2019-04-06T04:32:13.469Z,38.77
2019-04-06T04:34:41.945Z,34.10
2019-04-06T04:37:10.467Z,38.33
2019-04-06T04:39:38.983Z,35.93
2019-04-06T04:42:07.456Z,35.93
2019-04-06T04:44:35.940Z,36.67
2019-04-06T04:47:04.474Z,38.80
2019-04-06T04:49:32.956Z,37.77
2019-04-06T04:52:01.382Z,38.80
2019-04-06T04:54:29.855Z,36.63
2019-04-06T04:56:58.423Z,40.40
2019-04-06T04:59:27.631Z,34.97
2019-04-06T05:01:56.201Z,37.47
2019-04-06T05:04:25.003Z,37.57
2019-04-06T05:06:53.492Z,35.57
2019-04-06T05:09:21.965Z,38.03
2019-04-06T05:11:50.486Z,35.57
2019-04-06T05:14:55.454Z,37.33
2019-04-06T05:17:24.150Z,36.20
2019-04-06T05:19:52.856Z,33.77
2019-04-06T05:22:22.552Z,34.03
2019-04-06T05:24:51.356Z,34.03
2019-04-06T05:27:20.016Z,30.80
2019-04-06T05:29:48.584Z,36.10
2019-04-06T05:32:17.239Z,30.47
2019-04-06T05:34:45.883Z,30.83
2019-04-06T05:37:14.390Z,29.17
2019-04-06T05:39:42.947Z,31.03
2019-04-06T05:42:11.745Z,30.60
2019-04-06T05:44:40.538Z,30.20
2019-04-06T05:47:11.862Z,30.13
2019-04-06T05:49:40.367Z,32.03
2019-04-06T05:52:08.912Z,29.30
2019-04-06T05:54:37.754Z,32.37
2019-04-06T05:57:06.519Z,29.20
2019-04-06T05:59:35.099Z,29.90
2019-04-06T06:02:03.767Z,29.13
2019-04-06T06:04:32.457Z,30.03
2019-04-06T06:07:20.244Z,26.27
2019-04-06T06:09:48.762Z,29.80
2019-04-06T06:12:17.473Z,28.30
2019-04-06T06:14:46.807Z,30.37
2019-04-06T06:17:17.194Z,28.13
2019-04-06T06:19:46.402Z,27.97
2019-04-06T06:22:16.966Z,29.77
2019-04-06T06:24:46.236Z,27.43
2019-04-06T06:27:16.342Z,28.10
2019-04-06T06:29:47.087Z,26.93
2019-04-06T06:32:16.458Z,26.60
2019-04-06T06:34:45.659Z,30.50
2019-04-06T06:37:15.674Z,27.13
2019-04-06T06:40:15.332Z,27.53
2019-04-06T06:42:46.277Z,24.43
2019-04-06T06:45:16.698Z,25.67
2019-04-06T06:47:45.936Z,25.83
2019-04-06T06:50:16.469Z,22.00
2019-04-06T06:52:46.805Z,19.30
2019-04-06T06:55:17.184Z,19.10
2019-04-06T06:57:46.403Z,20.10
2019-04-06T07:13:47.740Z,18.67
2019-04-06T07:16:16.339Z,17.07
2019-04-06T07:19:29.884Z,20.03
2019-04-06T07:22:00.637Z,20.17
2019-04-06T07:24:40.609Z,18.80
2019-04-06T07:27:14.430Z,18.30
2019-04-06T07:29:44.519Z,17.80
2019-04-06T07:32:27.917Z,18.37
2019-04-06T07:34:57.592Z,16.53
2019-04-06T07:37:26.400Z,15.20
2019-04-06T07:39:54.879Z,14.97
2019-04-06T07:42:23.462Z,16.10
2019-04-06T07:45:13.879Z,16.10
2019-04-06T07:47:43.805Z,14.60
2019-04-06T07:50:14.576Z,15.23
2019-04-06T07:52:46.382Z,13.80
2019-04-06T07:55:29.867Z,14.23
2019-04-06T07:58:11.681Z,16.30
2019-04-06T08:00:43.173Z,15.07
2019-04-06T08:03:14.819Z,14.40
2019-04-06T08:09:00.841Z,15.20
2019-04-06T08:11:42.352Z,15.30
2019-04-06T08:14:14.555Z,16.20
2019-04-06T08:16:43.504Z,17.23
2019-04-06T08:19:13.071Z,15.70
2019-04-06T08:21:49.706Z,17.47
2019-04-06T08:24:19.728Z,14.37
2019-04-06T08:26:48.168Z,17.17
2019-04-06T08:29:16.840Z,16.60
2019-04-06T08:31:45.889Z,16.23
2019-04-06T08:34:15.372Z,15.90
2019-04-06T08:36:44.176Z,14.67
2019-04-06T08:39:14.312Z,14.73
2019-04-06T08:41:44.473Z,15.37
2019-04-06T08:44:14.764Z,16.07
2019-04-06T08:46:44.059Z,16.13
2019-04-06T08:49:14.627Z,15.90
2019-04-06T08:51:44.311Z,15.10
2019-04-06T08:54:32.092Z,15.43
2019-04-06T08:57:00.526Z,14.63
2019-04-06T08:59:28.983Z,14.47
2019-04-06T09:01:57.505Z,13.93
2019-04-06T09:04:25.962Z,13.80
2019-04-06T09:06:54.422Z,14.20
2019-04-06T09:09:23.130Z,13.37
2019-04-06T09:11:51.612Z,14.23
2019-04-06T09:14:20.061Z,12.97
2019-04-06T09:16:48.517Z,13.97
2019-04-06T09:19:17.114Z,13.00
2019-04-06T09:21:45.661Z,10.87
2019-04-06T09:24:14.276Z,10.50
2019-04-06T09:26:42.712Z,13.10
2019-04-06T09:29:21.831Z,7.33
2019-04-06T09:31:41.346Z,7.03
2019-04-06T09:34:09.809Z,7.30
2019-04-06T09:36:38.330Z,6.37
2019-04-06T09:39:06.850Z,7.10
2019-04-06T09:41:35.327Z,5.93
2019-04-06T09:44:05.337Z,6.60
2019-04-06T09:46:35.461Z,5.23
2019-04-06T09:49:08.454Z,6.20
2019-04-06T09:51:38.551Z,5.37
2019-04-06T09:54:35.629Z,5.07
2019-04-06T09:57:08.254Z,5.63
2019-04-06T09:59:44.410Z,6.37
2019-04-06T10:02:30.750Z,6.07
2019-04-06T10:05:17.511Z,4.73
2019-04-06T10:07:47.735Z,5.50
2019-04-06T10:10:34.821Z,6.00
2019-04-06T10:13:11.052Z,5.80
2019-04-06T10:15:59.454Z,5.90
2019-04-06T10:18:38.514Z,5.70
2019-04-06T10:21:11.887Z,5.60
2019-04-06T10:23:47.731Z,5.10
2019-04-06T10:26:34.036Z,5.53
2019-04-06T10:29:20.594Z,4.57
2019-04-06T10:32:09.037Z,5.10
2019-04-06T10:34:41.811Z,4.57
2019-04-06T10:37:17.657Z,5.47
2019-04-06T10:39:50.655Z,4.73
2019-04-06T10:42:20.775Z,5.13
2019-04-06T10:45:03.231Z,5.77
2019-04-06T10:47:39.046Z,5.53
2019-04-06T10:50:11.979Z,6.33
2019-04-06T10:52:42.134Z,6.30
2019-04-06T10:55:12.687Z,5.80
2019-04-06T10:57:58.950Z,5.47
2019-04-06T11:00:32.000Z,6.00
2019-04-06T11:03:11.073Z,5.57
2019-04-06T11:05:47.161Z,6.20
2019-04-06T11:08:32.339Z,5.87
2019-04-06T11:11:05.075Z,6.03
2019-04-06T11:13:47.036Z,5.17
2019-04-06T11:16:22.819Z,5.90
2019-04-06T11:19:05.221Z,7.90
2019-04-06T11:21:35.516Z,5.47
2019-04-06T11:24:14.888Z,4.50
2019-04-06T11:26:51.007Z,5.20
2019-04-06T11:29:21.412Z,5.23
2019-04-06T11:31:57.014Z,6.03
2019-04-06T11:34:27.110Z,5.43
2019-04-06T11:36:57.193Z,4.67
2019-04-06T11:39:36.503Z,4.07
2019-04-06T11:42:06.648Z,5.93
2019-04-06T11:44:42.764Z,6.27
2019-04-06T11:47:27.919Z,5.50
2019-04-06T11:50:01.411Z,4.97
2019-04-06T11:55:25.720Z,6.30
2019-04-06T11:58:05.292Z,5.53
2019-04-06T12:00:44.148Z,6.87
2019-04-06T12:03:18.021Z,6.50
2019-04-06T12:05:51.757Z,5.90
2019-04-06T12:08:21.843Z,6.47
2019-04-06T12:11:10.856Z,5.80
2019-04-06T12:13:45.767Z,5.43
2019-04-06T12:16:25.022Z,5.90
2019-04-06T12:19:13.249Z,6.03
2019-04-06T12:22:22.400Z,5.83
2019-04-06T12:25:13.361Z,5.60
2019-04-06T12:27:45.395Z,6.73
2019-04-06T12:30:21.450Z,7.03
2019-04-06T12:33:08.895Z,7.07
2019-04-06T12:35:58.426Z,6.47
2019-04-06T12:38:40.974Z,7.90
2019-04-06T12:41:22.100Z,7.70
2019-04-06T12:44:01.007Z,7.33
2019-04-06T12:46:49.713Z,7.90
2019-04-06T12:49:40.950Z,7.23
2019-04-06T12:55:20.715Z,7.33
2019-04-06T12:57:50.856Z,8.47
2019-04-06T13:00:23.753Z,7.63
2019-04-06T13:02:53.900Z,8.37
2019-04-06T13:05:28.576Z,9.07
2019-04-06T13:08:05.758Z,7.87
2019-04-06T13:11:19.842Z,7.50
2019-04-06T13:13:56.019Z,8.37
2019-04-06T13:16:46.505Z,7.93
2019-04-06T13:19:35.673Z,8.03
2019-04-06T13:22:16.506Z,8.87
2019-04-06T13:25:08.481Z,7.33
2019-04-06T13:27:50.784Z,8.40
2019-04-06T13:33:17.463Z,9.00
2019-04-06T13:35:53.744Z,9.33
2019-04-06T13:38:41.504Z,10.33
2019-04-06T13:41:50.792Z,9.10
2019-04-06T13:44:23.908Z,10.07
2019-04-06T13:46:56.354Z,10.30
2019-04-06T13:49:25.784Z,11.30
2019-04-06T13:51:56.079Z,9.33
2019-04-06T13:54:44.479Z,10.60
2019-04-06T13:57:30.491Z,8.10
2019-04-06T14:00:12.252Z,11.57
2019-04-06T14:03:08.314Z,9.13
2019-04-06T14:05:56.512Z,11.50
2019-04-06T14:09:00.848Z,11.70
2019-04-06T14:11:53.852Z,11.50
2019-04-06T14:14:45.706Z,11.73
2019-04-06T14:17:28.014Z,13.63
2019-04-06T14:20:00.461Z,12.73
2019-04-06T14:22:51.514Z,12.87
2019-04-06T14:25:21.589Z,9.27
2019-04-06T14:28:09.949Z,10.13
2019-04-06T14:30:51.233Z,12.00
2019-04-06T14:33:26.849Z,10.87
2019-04-06T14:36:17.317Z,11.87
2019-04-06T14:38:48.352Z,10.97
2019-04-06T14:41:45.241Z,11.83
2019-04-06T14:44:45.611Z,10.90
2019-04-06T14:47:23.880Z,11.83
2019-04-06T14:50:17.629Z,11.53
2019-04-06T14:52:59.963Z,10.33
2019-04-06T14:55:43.857Z,12.53
2019-04-06T14:58:18.250Z,12.10
2019-04-06T15:03:59.056Z,10.40
2019-04-06T15:06:41.577Z,11.10
2019-04-06T15:09:28.186Z,10.77
2019-04-06T15:12:10.434Z,10.63
2019-04-06T15:15:05.287Z,11.23
2019-04-06T15:17:51.580Z,11.23
2019-04-06T15:20:26.087Z,12.33
2019-04-06T15:23:07.928Z,12.57
2019-04-06T15:25:43.768Z,11.07
2019-04-06T15:28:16.755Z,10.23
2019-04-06T15:30:55.422Z,11.10
2019-04-06T15:33:41.597Z,10.60
2019-04-06T15:36:27.957Z,9.73
2019-04-06T15:39:10.450Z,10.17
2019-04-06T15:41:40.508Z,9.57
2019-04-06T15:44:13.452Z,8.63
2019-04-06T15:46:52.687Z,10.93
2019-04-06T15:49:48.291Z,10.20
2019-04-06T15:52:30.656Z,11.00
2019-04-06T16:00:47.372Z,9.77
2019-04-06T16:03:17.632Z,6.97
2019-04-06T16:05:50.425Z,9.27
2019-04-06T16:08:20.520Z,9.07
2019-04-06T16:10:50.648Z,8.40
2019-04-06T16:13:20.773Z,9.20
2019-04-06T16:15:53.743Z,8.63
2019-04-06T16:18:23.855Z,9.60
2019-04-06T16:21:00.767Z,9.00
2019-04-06T16:23:33.578Z,8.43
2019-04-06T16:26:06.371Z,8.37
2019-04-06T16:28:53.081Z,8.93
2019-04-06T16:31:32.298Z,8.73
2019-04-06T16:34:17.348Z,8.87
2019-04-06T16:37:03.510Z,8.90
2019-04-06T16:39:36.327Z,8.77
2019-04-06T16:42:22.804Z,7.73
2019-04-06T16:45:09.126Z,8.53
2019-04-06T16:47:39.177Z,8.87
2019-04-06T16:50:18.177Z,9.33
2019-04-06T16:53:04.933Z,8.37
2019-04-06T16:55:35.099Z,9.13
2019-04-06T16:58:17.410Z,8.50
2019-04-06T17:00:50.400Z,7.43
2019-04-06T17:03:23.436Z,9.20
2019-04-06T17:06:08.678Z,7.70
2019-04-06T17:08:50.727Z,8.40
2019-04-06T17:11:37.325Z,8.90
2019-04-06T17:14:13.520Z,8.53
2019-04-06T17:16:59.937Z,7.70
2019-04-06T17:19:46.578Z,8.67
2019-04-06T17:22:16.956Z,9.70
2019-04-06T17:24:53.361Z,10.13
2019-04-06T17:27:23.510Z,11.40
2019-04-06T17:30:10.129Z,12.10
2019-04-06T17:32:40.311Z,13.80
2019-04-06T17:35:16.478Z,12.53
2019-04-06T17:38:06.661Z,11.93
2019-04-06T17:40:42.761Z,12.90
2019-04-06T17:43:19.146Z,14.40
2019-04-06T17:46:04.476Z,13.53
2019-04-06T17:48:51.098Z,13.77
2019-04-06T17:51:30.141Z,13.17
2019-04-06T17:54:06.239Z,13.57
2019-04-06T17:56:36.356Z,13.30
2019-04-06T17:59:10.223Z,12.93
2019-04-06T18:01:40.333Z,13.53
2019-04-06T18:04:21.971Z,14.27
2019-04-06T18:06:54.743Z,14.00
2019-04-06T18:12:29.989Z,13.87
2019-04-06T18:15:20.103Z,13.90
2019-04-06T18:17:48.620Z,13.33
2019-04-06T18:20:17.717Z,14.13
2019-04-06T18:22:46.164Z,15.47
2019-04-06T18:25:14.604Z,14.40
2019-04-06T18:27:43.033Z,14.60
2019-04-06T18:30:11.711Z,14.60
2019-04-06T18:33:00.051Z,13.57
2019-04-06T18:35:23.366Z,12.67
2019-04-06T18:38:08.447Z,13.00
2019-04-06T18:40:36.998Z,13.87
2019-04-06T18:43:05.426Z,14.10
2019-04-06T18:45:34.172Z,13.07
2019-04-06T18:48:03.348Z,12.87
2019-04-06T18:50:36.705Z,13.67
2019-04-06T18:53:02.227Z,13.57
2019-04-06T18:55:30.757Z,14.07
2019-04-06T18:58:08.743Z,14.83
2019-04-06T19:00:29.684Z,14.07
2019-04-06T19:03:09.756Z,13.23
2019-04-06T19:05:28.643Z,13.70
2019-04-06T19:07:57.590Z,13.63
2019-04-06T19:10:26.181Z,12.87
2019-04-06T19:13:13.951Z,13.67
2019-04-06T19:15:44.427Z,14.03
2019-04-06T19:18:13.396Z,16.13
2019-04-06T19:20:42.206Z,14.17
2019-04-06T19:23:11.966Z,13.30
2019-04-06T19:25:41.020Z,13.87
2019-04-06T19:28:09.519Z,17.57
2019-04-06T19:30:37.996Z,16.73
2019-04-06T19:33:06.715Z,15.23
2019-04-06T19:35:35.181Z,14.70
2019-04-06T19:38:04.243Z,14.27
2019-04-06T19:40:33.764Z,13.67
2019-04-06T19:43:02.198Z,13.67
2019-04-06T19:45:30.675Z,15.13
2019-04-06T19:47:59.311Z,13.57
2019-04-06T19:50:30.475Z,15.33
2019-04-06T19:52:58.937Z,15.73
2019-04-06T19:55:27.370Z,13.97
2019-04-06T19:57:56.018Z,13.57
2019-04-06T20:00:24.867Z,14.30
2019-04-06T20:02:53.280Z,12.30
2019-04-06T20:05:22.027Z,11.47
2019-04-06T20:07:50.442Z,11.83
2019-04-06T20:10:19.417Z,12.17
2019-04-06T20:12:48.063Z,12.63
2019-04-06T20:15:16.998Z,13.47
2019-04-06T20:17:46.140Z,13.83
2019-04-06T20:20:15.810Z,14.73
2019-04-06T20:22:44.529Z,14.77
2019-04-06T20:25:13.692Z,13.23
2019-04-06T20:27:42.215Z,13.27
2019-04-06T20:30:11.631Z,13.80
2019-04-06T20:32:40.362Z,15.07
2019-04-06T20:35:09.432Z,17.53
2019-04-06T20:37:37.939Z,14.63
2019-04-06T20:40:08.904Z,15.03
2019-04-06T20:42:37.436Z,15.37
2019-04-06T20:45:08.290Z,15.87
2019-04-06T20:47:37.039Z,16.77
2019-04-06T20:50:09.242Z,15.53
2019-04-06T20:52:37.740Z,17.27
2019-04-06T20:55:27.041Z,17.43
2019-04-06T20:57:56.140Z,16.47
2019-04-06T21:00:25.500Z,16.77
2019-04-06T21:02:54.051Z,16.93
2019-04-06T21:05:22.512Z,17.47
2019-04-06T21:07:51.013Z,17.60
2019-04-06T21:10:19.505Z,16.30
2019-04-06T21:12:47.964Z,18.73
2019-04-06T21:15:20.696Z,18.63
2019-04-06T21:17:46.661Z,17.40
2019-04-06T21:20:15.745Z,18.53
2019-04-06T21:22:44.331Z,18.07
2019-04-06T21:25:12.785Z,19.30
2019-04-06T21:27:43.153Z,16.83
2019-04-06T21:30:11.636Z,17.53
2019-04-06T21:32:40.059Z,16.50
2019-04-06T21:35:09.116Z,16.30
2019-04-06T21:37:37.858Z,16.80
2019-04-06T21:40:07.285Z,16.23
2019-04-06T21:42:36.480Z,20.07
2019-04-06T21:45:07.936Z,20.07
2019-04-06T21:47:36.473Z,21.87
2019-04-06T21:50:08.726Z,19.77
2019-04-06T21:53:00.302Z,18.97
2019-04-06T21:55:33.242Z,21.83
2019-04-06T21:58:11.914Z,22.07
2019-04-06T22:00:50.002Z,21.13
2019-04-06T22:03:19.013Z,20.13
2019-04-06T22:05:47.815Z,20.57
2019-04-06T22:08:36.182Z,19.77
2019-04-06T22:11:04.950Z,19.23
2019-04-06T22:13:33.552Z,19.47
2019-04-06T22:16:01.998Z,18.67
2019-04-06T22:18:30.435Z,20.00
2019-04-06T22:20:59.547Z,19.10
2019-04-06T22:23:39.744Z,21.43
2019-04-06T22:25:58.166Z,20.93
2019-04-06T22:28:26.777Z,23.37
2019-04-06T22:30:55.328Z,23.87
2019-04-06T22:33:23.922Z,25.93
2019-04-06T22:35:52.287Z,22.07
2019-04-06T22:38:20.727Z,22.20
2019-04-06T22:40:49.847Z,22.40
2019-04-06T22:43:18.973Z,23.70
2019-04-06T22:45:47.389Z,26.07
2019-04-06T22:48:15.811Z,23.60
2019-04-06T22:50:44.251Z,23.63
2019-04-06T22:53:13.223Z,24.13
2019-04-06T22:55:41.695Z,25.27
2019-04-06T22:58:10.106Z,24.97
2019-04-06T23:00:43.129Z,24.17
2019-04-06T23:03:16.172Z,23.37
2019-04-06T23:05:49.267Z,23.17
2019-04-06T23:08:17.724Z,25.60
2019-04-06T23:10:46.602Z,24.67
2019-04-06T23:13:15.224Z,25.30
2019-04-06T23:15:43.975Z,21.67
2019-04-06T23:18:13.843Z,24.80
2019-04-06T23:20:42.708Z,27.03
2019-04-06T23:23:11.179Z,25.60
2019-04-06T23:25:44.941Z,27.03
2019-04-06T23:28:13.828Z,27.37
2019-04-06T23:30:42.889Z,27.57
2019-04-06T23:33:12.012Z,26.37
2019-04-06T23:35:41.249Z,26.17
2019-04-06T23:38:09.765Z,25.33
2019-04-06T23:40:38.666Z,24.80
2019-04-06T23:43:07.423Z,25.87
2019-04-06T23:45:35.978Z,25.67
2019-04-06T23:48:04.460Z,25.60
2019-04-06T23:50:33.164Z,25.83
2019-04-06T23:53:01.580Z,26.23
2019-04-06T23:55:30.074Z,25.27
2019-04-06T23:57:58.926Z,25.17
